Time;durP1;ratioP1;P1;durP2;ratioP2;P2;SDS_P1;SDS_P2;PMS_P1;PMS_P2;Temp;Humidity;BMP_temperature;BMP_pressure;BME280_temperature;BME280_humidity;BME280_pressure;Samples;Min_cycle;Max_cycle;Signal;HPM_P1;HPM_P2
2023/07/22 00:00:46;;;;;;;13.32;6.03;;;14.20;99.90;;;;;;5078865;28;20048;-71
2023/07/22 00:03:11;;;;;;;12.63;5.38;;;14.20;99.90;;;;;;5089814;28;20126;-70
2023/07/22 00:05:37;;;;;;;12.20;5.30;;;14.20;99.90;;;;;;5088227;28;20051;-70
2023/07/22 00:08:03;;;;;;;14.30;5.78;;;14.20;99.90;;;;;;5089401;28;20052;-71
2023/07/22 00:10:29;;;;;;;11.82;5.72;;;14.20;99.90;;;;;;5089820;28;20063;-70
2023/07/22 00:12:54;;;;;;;9.73;4.82;;;14.10;99.90;;;;;;5088570;28;20409;-70
2023/07/22 00:15:22;;;;;;;12.65;5.40;;;14.20;99.90;;;;;;5080462;28;20098;-70
2023/07/22 00:17:48;;;;;;;11.60;5.15;;;14.10;99.90;;;;;;5089688;28;20056;-70
2023/07/22 00:20:16;;;;;;;11.02;5.13;;;14.10;99.90;;;;;;5086936;28;20044;-71
2023/07/22 00:22:42;;;;;;;11.07;5.63;;;14.10;99.90;;;;;;5089391;28;20087;-71
2023/07/22 00:25:11;;;;;;;11.38;5.15;;;14.10;99.90;;;;;;5088030;28;20040;-70
2023/07/22 00:27:38;;;;;;;11.85;5.22;;;14.00;99.90;;;;;;5086988;28;20047;-70
2023/07/22 00:30:05;;;;;;;10.40;5.00;;;14.00;99.90;;;;;;5088524;28;20040;-71
2023/07/22 00:32:31;;;;;;;9.77;5.30;;;14.00;99.90;;;;;;5087454;28;20052;-70
2023/07/22 00:34:57;;;;;;;11.65;4.65;;;14.00;99.90;;;;;;5082850;28;20055;-70
2023/07/22 00:37:23;;;;;;;10.25;5.20;;;13.90;99.90;;;;;;5086566;28;20733;-70
2023/07/22 00:39:48;;;;;;;10.80;5.10;;;13.90;99.90;;;;;;5085476;28;20079;-70
2023/07/22 00:42:14;;;;;;;11.13;4.65;;;13.90;99.90;;;;;;5085586;28;20101;-70
2023/07/22 00:44:40;;;;;;;10.63;3.95;;;13.90;99.90;;;;;;5088378;28;20599;-70
2023/07/22 00:47:06;;;;;;;9.70;4.40;;;13.90;99.90;;;;;;5084833;28;20180;-70
2023/07/22 00:49:32;;;;;;;9.10;4.80;;;13.80;99.90;;;;;;5087104;28;20048;-70
2023/07/22 00:52:02;;;;;;;12.57;5.25;;;13.80;99.90;;;;;;5088631;28;21013;-71
2023/07/22 00:54:28;;;;;;;12.10;5.63;;;13.80;99.90;;;;;;5088102;28;20044;-71
2023/07/22 00:56:56;;;;;;;14.18;5.55;;;13.80;99.90;;;;;;5088127;28;20068;-71
2023/07/22 00:59:21;;;;;;;12.48;5.40;;;13.70;99.90;;;;;;5087572;28;20458;-70
2023/07/22 01:01:47;;;;;;;12.60;5.40;;;13.70;99.90;;;;;;5088138;28;20048;-71
2023/07/22 01:04:15;;;;;;;11.43;4.90;;;13.70;99.90;;;;;;5086931;28;20044;-70
2023/07/22 01:06:42;;;;;;;10.98;4.90;;;13.70;99.90;;;;;;5086752;28;20507;-71
2023/07/22 01:09:09;;;;;;;11.65;5.43;;;13.70;99.90;;;;;;5086700;28;20050;-71
2023/07/22 01:11:34;;;;;;;9.30;4.90;;;13.60;99.90;;;;;;5090056;28;20556;-70
2023/07/22 01:14:01;;;;;;;10.40;5.05;;;13.60;99.90;;;;;;5085054;28;20135;-70
2023/07/22 01:16:28;;;;;;;10.73;5.43;;;13.60;99.90;;;;;;5088143;28;20412;-70
2023/07/22 01:18:54;;;;;;;12.15;5.18;;;13.50;99.90;;;;;;5069519;28;20048;-70
2023/07/22 01:21:23;;;;;;;11.95;5.35;;;13.50;99.90;;;;;;5069914;28;20086;-70
2023/07/22 01:23:50;;;;;;;10.48;5.05;;;13.50;99.90;;;;;;5087480;28;20036;-70
2023/07/22 01:26:16;;;;;;;9.80;4.75;;;13.50;99.90;;;;;;5087773;28;20539;-70
2023/07/22 01:28:41;;;;;;;12.23;5.00;;;13.50;99.90;;;;;;5086399;28;20082;-70
2023/07/22 01:31:07;;;;;;;12.63;4.95;;;13.40;99.90;;;;;;5083244;28;20438;-70
2023/07/22 01:33:33;;;;;;;11.27;5.13;;;13.40;99.90;;;;;;5086647;28;20070;-70
2023/07/22 01:36:00;;;;;;;11.48;4.63;;;13.40;99.90;;;;;;5084496;28;20086;-70
2023/07/22 01:38:26;;;;;;;9.45;4.40;;;13.40;99.90;;;;;;5086353;28;20043;-70
2023/07/22 01:40:52;;;;;;;10.65;4.72;;;13.40;99.90;;;;;;5084752;28;20069;-70
2023/07/22 01:43:18;;;;;;;10.52;4.40;;;13.40;99.90;;;;;;5066285;28;20056;-70
2023/07/22 01:45:43;;;;;;;10.88;4.40;;;13.30;99.90;;;;;;5082628;28;20048;-70
2023/07/22 01:48:09;;;;;;;9.05;4.25;;;13.30;99.90;;;;;;5085199;28;20492;-71
2023/07/22 01:50:35;;;;;;;8.85;3.95;;;13.30;99.90;;;;;;5081816;28;20093;-70
2023/07/22 01:53:01;;;;;;;9.70;4.22;;;13.30;99.90;;;;;;5079296;28;20045;-70
2023/07/22 01:55:26;;;;;;;8.30;4.07;;;13.20;99.90;;;;;;5085527;28;20040;-70
2023/07/22 01:57:52;;;;;;;12.68;3.75;;;13.20;99.90;;;;;;5087070;28;20115;-72
2023/07/22 02:00:18;;;;;;;9.32;4.40;;;13.20;99.90;;;;;;5085566;28;20153;-72
2023/07/22 02:02:43;;;;;;;9.73;3.72;;;13.20;99.90;;;;;;5087990;28;20101;-73
2023/07/22 02:05:10;;;;;;;9.85;3.97;;;13.10;99.90;;;;;;5084544;28;20105;-72
2023/07/22 02:07:36;;;;;;;8.85;3.67;;;13.10;99.90;;;;;;5087457;28;20051;-72
2023/07/22 02:10:03;;;;;;;10.80;3.90;;;13.10;99.90;;;;;;5086666;28;20477;-73
2023/07/22 02:12:28;;;;;;;8.88;3.90;;;13.10;99.90;;;;;;5086052;28;20540;-72
2023/07/22 02:14:54;;;;;;;11.65;4.10;;;13.00;99.90;;;;;;5086566;28;20119;-72
2023/07/22 02:17:20;;;;;;;10.27;4.07;;;13.00;99.90;;;;;;5086965;28;20059;-72
2023/07/22 02:19:46;;;;;;;11.45;4.28;;;13.00;99.90;;;;;;5084085;28;20036;-72
2023/07/22 02:22:12;;;;;;;8.40;3.95;;;12.90;99.90;;;;;;5087000;28;20117;-72
2023/07/22 02:24:38;;;;;;;7.55;3.92;;;12.90;99.90;;;;;;5087116;28;20059;-72
2023/07/22 02:27:04;;;;;;;7.72;3.67;;;12.90;99.90;;;;;;5086322;28;20048;-72
2023/07/22 02:29:32;;;;;;;7.78;3.72;;;12.90;99.90;;;;;;5086190;28;20040;-72
2023/07/22 02:31:57;;;;;;;9.25;3.47;;;12.90;99.90;;;;;;5085960;28;20076;-72
2023/07/22 02:34:23;;;;;;;8.80;3.80;;;12.80;99.90;;;;;;5084983;28;20047;-73
2023/07/22 02:36:49;;;;;;;10.02;3.95;;;12.80;99.90;;;;;;5086269;28;20044;-72
2023/07/22 02:39:15;;;;;;;11.05;3.63;;;12.80;99.90;;;;;;5086982;28;20127;-72
2023/07/22 02:41:41;;;;;;;7.80;3.30;;;12.80;99.90;;;;;;5082984;28;20126;-72
2023/07/22 02:44:06;;;;;;;14.32;3.70;;;12.60;99.90;;;;;;5085310;28;20044;-72
2023/07/22 02:46:32;;;;;;;9.60;3.95;;;12.70;99.90;;;;;;5086307;28;20040;-73
2023/07/22 02:48:59;;;;;;;8.60;3.22;;;12.70;99.90;;;;;;5085060;28;20389;-72
2023/07/22 02:51:24;;;;;;;8.18;3.20;;;12.70;99.90;;;;;;5086605;28;20105;-72
2023/07/22 02:53:50;;;;;;;8.75;3.47;;;12.70;99.90;;;;;;5086657;28;20040;-73
2023/07/22 02:56:16;;;;;;;9.57;3.78;;;12.70;99.90;;;;;;5085418;28;20044;-73
2023/07/22 02:58:42;;;;;;;8.77;3.65;;;12.70;99.90;;;;;;5084433;28;20051;-72
2023/07/22 03:01:08;;;;;;;8.77;4.28;;;12.60;99.90;;;;;;5084772;28;20515;-72
2023/07/22 03:03:35;;;;;;;10.40;3.70;;;12.60;99.90;;;;;;5083825;28;20482;-72
2023/07/22 03:06:01;;;;;;;8.18;3.75;;;12.60;99.90;;;;;;5081667;28;20043;-72
2023/07/22 03:08:27;;;;;;;8.25;3.50;;;12.60;99.90;;;;;;5084615;28;20512;-72
2023/07/22 03:10:53;;;;;;;6.97;3.75;;;12.50;99.90;;;;;;5067122;28;20595;-73
2023/07/22 03:13:19;;;;;;;7.40;3.10;;;12.50;99.90;;;;;;5085192;28;20131;-73
2023/07/22 03:15:44;;;;;;;8.27;3.60;;;12.50;99.90;;;;;;5086641;28;20074;-73
2023/07/22 03:18:11;;;;;;;8.27;3.08;;;12.50;99.90;;;;;;5086572;28;20040;-72
2023/07/22 03:20:38;;;;;;;7.65;3.58;;;12.50;99.90;;;;;;5085776;28;20044;-72
2023/07/22 03:23:04;;;;;;;8.30;3.75;;;12.40;99.90;;;;;;5084554;28;20028;-72
2023/07/22 03:25:30;;;;;;;8.48;3.58;;;12.40;99.90;;;;;;5085872;28;20047;-73
2023/07/22 03:27:56;;;;;;;8.75;4.00;;;12.40;99.90;;;;;;5088882;28;20519;-72
2023/07/22 03:30:25;;;;;;;9.15;3.75;;;12.40;99.90;;;;;;5088952;28;20122;-73
2023/07/22 03:32:50;;;;;;;8.30;4.07;;;12.40;99.90;;;;;;5085062;28;20774;-73
2023/07/22 03:35:17;;;;;;;10.40;4.25;;;12.30;99.90;;;;;;5083450;28;20048;-73
2023/07/22 03:37:43;;;;;;;9.80;4.00;;;12.30;99.90;;;;;;5089672;28;20622;-73
2023/07/22 03:43:07;;;;;;;7.60;3.58;;;12.30;99.90;;;;;;5040158;28;20078;-73
2023/07/22 03:45:33;;;;;;;9.93;3.97;;;12.30;99.90;;;;;;5087366;28;20458;-73
2023/07/22 03:48:00;;;;;;;9.20;3.95;;;12.30;99.90;;;;;;5090342;28;20101;-73
2023/07/22 03:50:27;;;;;;;10.15;4.05;;;12.30;99.90;;;;;;5088327;28;20036;-73
2023/07/22 03:52:53;;;;;;;9.27;4.00;;;12.30;99.90;;;;;;5085360;28;20051;-72
2023/07/22 03:55:22;;;;;;;8.13;3.70;;;12.30;99.90;;;;;;5089343;28;20075;-73
2023/07/22 03:57:47;;;;;;;7.80;3.88;;;12.30;99.90;;;;;;5078087;28;20522;-72
2023/07/22 04:00:13;;;;;;;9.70;4.10;;;12.30;99.90;;;;;;5087478;28;20040;-72
2023/07/22 04:02:39;;;;;;;8.52;3.70;;;12.30;99.90;;;;;;5088464;28;20048;-72
2023/07/22 04:05:05;;;;;;;10.05;4.82;;;12.30;99.90;;;;;;5089309;28;20047;-72
2023/07/22 04:07:31;;;;;;;8.57;4.18;;;12.30;99.90;;;;;;5089236;28;20048;-72
2023/07/22 04:09:57;;;;;;;11.18;4.68;;;12.30;99.90;;;;;;5087523;28;20524;-72
2023/07/22 04:12:23;;;;;;;9.68;4.43;;;12.40;99.90;;;;;;5088756;28;20044;-73
2023/07/22 04:14:49;;;;;;;9.30;3.92;;;12.30;99.90;;;;;;5088955;28;20050;-73
2023/07/22 04:17:15;;;;;;;13.30;5.03;;;12.40;99.90;;;;;;5089429;28;20509;-73
2023/07/22 04:19:42;;;;;;;9.38;4.32;;;12.40;99.90;;;;;;5087420;28;20507;-73
2023/07/22 04:22:08;;;;;;;11.15;5.72;;;12.40;99.90;;;;;;5089186;28;20135;-73
2023/07/22 04:24:33;;;;;;;11.32;5.60;;;12.40;99.90;;;;;;5088539;28;20131;-73
2023/07/22 04:27:00;;;;;;;13.02;5.63;;;12.40;99.90;;;;;;5084253;28;20051;-72
2023/07/22 04:29:26;;;;;;;12.63;4.93;;;12.50;99.90;;;;;;5089133;28;20048;-73
2023/07/22 04:31:56;;;;;;;11.98;5.22;;;12.50;99.90;;;;;;5088640;28;20497;-72
2023/07/22 04:34:28;;;;;;;11.65;5.90;;;12.40;99.90;;;;;;5084139;28;20124;-72
2023/07/22 04:36:54;;;;;;;11.55;6.13;;;12.50;99.90;;;;;;5079640;28;20536;-73
2023/07/22 04:39:21;;;;;;;10.73;5.15;;;12.50;99.90;;;;;;5085525;28;20048;-73
2023/07/22 04:41:46;;;;;;;13.32;5.60;;;12.50;99.90;;;;;;5086490;28;20063;-70
2023/07/22 04:44:12;;;;;;;11.95;6.05;;;12.50;99.90;;;;;;5085287;28;20044;-70
2023/07/22 04:46:38;;;;;;;13.30;6.10;;;12.50;99.90;;;;;;5086694;28;20116;-70
2023/07/22 04:49:03;;;;;;;13.75;5.90;;;12.60;99.90;;;;;;5085161;28;20564;-70
2023/07/22 04:51:31;;;;;;;12.45;6.47;;;12.60;99.90;;;;;;5081762;28;20123;-70
2023/07/22 04:53:57;;;;;;;12.00;6.38;;;12.60;99.90;;;;;;5087191;28;20132;-70
2023/07/22 04:56:23;;;;;;;12.70;6.57;;;12.60;99.90;;;;;;5085690;28;20664;-70
2023/07/22 04:58:49;;;;;;;12.27;5.78;;;12.60;99.90;;;;;;5088805;28;20059;-73
2023/07/22 05:01:15;;;;;;;13.30;6.30;;;12.60;99.90;;;;;;5089033;28;20044;-73
2023/07/22 05:03:41;;;;;;;14.80;7.43;;;12.60;99.90;;;;;;5086357;28;20195;-73
2023/07/22 05:06:08;;;;;;;14.90;6.93;;;12.60;99.90;;;;;;5087864;28;20062;-73
2023/07/22 05:08:34;;;;;;;14.68;7.43;;;12.70;99.90;;;;;;5086765;28;20044;-73
2023/07/22 05:11:00;;;;;;;11.02;6.10;;;12.60;99.90;;;;;;5083550;28;20044;-73
2023/07/22 05:13:26;;;;;;;13.10;6.43;;;12.70;99.90;;;;;;5086842;28;20477;-73
2023/07/22 05:15:51;;;;;;;11.32;5.72;;;12.70;99.90;;;;;;5086684;28;20413;-73
2023/07/22 05:18:17;;;;;;;14.23;6.60;;;12.80;99.90;;;;;;5089705;28;20036;-73
2023/07/22 05:20:43;;;;;;;15.32;7.22;;;12.80;99.90;;;;;;5085039;28;20048;-73
2023/07/22 05:23:08;;;;;;;14.30;7.10;;;12.80;99.90;;;;;;5087481;28;20044;-73
2023/07/22 05:25:34;;;;;;;14.45;6.70;;;12.90;99.90;;;;;;5086669;28;20296;-73
2023/07/22 05:28:00;;;;;;;15.18;6.72;;;12.90;99.90;;;;;;5088127;28;20036;-73
2023/07/22 05:30:25;;;;;;;13.77;6.68;;;13.00;99.90;;;;;;5085229;28;20039;-73
2023/07/22 05:32:54;;;;;;;13.82;6.93;;;13.00;99.90;;;;;;5087916;28;20036;-73
2023/07/22 05:35:20;;;;;;;13.55;6.47;;;13.10;99.90;;;;;;5091241;28;20036;-73
2023/07/22 05:37:46;;;;;;;12.48;6.82;;;13.10;99.90;;;;;;5087620;28;20044;-73
2023/07/22 05:40:13;;;;;;;13.57;7.80;;;13.20;99.90;;;;;;5087785;28;20455;-73
2023/07/22 05:42:38;;;;;;;14.30;7.05;;;13.20;99.90;;;;;;5086005;28;20074;-73
2023/07/22 05:45:04;;;;;;;14.88;7.28;;;13.30;99.90;;;;;;5086765;28;20044;-73
2023/07/22 05:47:30;;;;;;;15.50;7.55;;;13.40;99.90;;;;;;5085370;28;20036;-73
2023/07/22 05:49:56;;;;;;;13.07;7.85;;;13.40;99.90;;;;;;5068740;28;20056;-73
2023/07/22 05:52:22;;;;;;;12.73;7.40;;;13.50;99.90;;;;;;5091650;28;20106;-73
2023/07/22 05:54:47;;;;;;;17.25;7.22;;;13.50;99.90;;;;;;5065338;28;20445;-73
2023/07/22 05:57:14;;;;;;;14.88;7.38;;;13.50;99.90;;;;;;5082843;28;20048;-73
2023/07/22 05:59:40;;;;;;;15.38;7.40;;;13.60;99.90;;;;;;5085839;28;20040;-73
2023/07/22 06:02:07;;;;;;;16.75;7.10;;;13.60;99.90;;;;;;5086144;28;20043;-73
2023/07/22 06:04:33;;;;;;;15.90;7.80;;;13.70;99.90;;;;;;5084814;28;20123;-73
2023/07/22 06:06:59;;;;;;;15.63;7.85;;;13.70;99.90;;;;;;5085308;28;20127;-73
2023/07/22 06:09:24;;;;;;;18.38;8.30;;;13.80;99.90;;;;;;5094620;28;20092;-72
2023/07/22 06:11:50;;;;;;;15.63;7.90;;;13.80;99.90;;;;;;5084832;28;20047;-72
2023/07/22 06:14:16;;;;;;;17.52;8.70;;;13.90;99.90;;;;;;5087019;28;20040;-72
2023/07/22 06:16:42;;;;;;;15.43;7.60;;;13.90;99.90;;;;;;5086613;28;20096;-72
2023/07/22 06:19:08;;;;;;;14.20;7.90;;;13.90;99.90;;;;;;5076971;28;20036;-73
2023/07/22 06:21:33;;;;;;;15.73;8.60;;;14.00;99.90;;;;;;5079174;28;20036;-72
2023/07/22 06:23:59;;;;;;;15.98;8.90;;;14.10;99.90;;;;;;5084043;28;20071;-73
2023/07/22 06:26:25;;;;;;;16.17;9.18;;;14.10;99.90;;;;;;5086191;28;20048;-73
2023/07/22 06:28:50;;;;;;;17.08;9.57;;;14.20;99.90;;;;;;5086272;28;20093;-73
2023/07/22 06:31:18;;;;;;;17.42;9.73;;;14.30;99.90;;;;;;5085646;28;20040;-73
2023/07/22 06:33:43;;;;;;;20.80;10.00;;;14.40;99.90;;;;;;5085739;28;20036;-73
2023/07/22 06:36:09;;;;;;;18.65;10.43;;;14.40;99.90;;;;;;5079992;28;20051;-73
2023/07/22 06:38:35;;;;;;;17.42;8.98;;;14.50;99.90;;;;;;5084485;28;20044;-73
2023/07/22 06:41:01;;;;;;;21.40;10.02;;;14.60;99.90;;;;;;5081760;28;20044;-72
2023/07/22 06:43:27;;;;;;;16.27;9.57;;;14.70;99.90;;;;;;5078438;28;20043;-73
2023/07/22 06:45:53;;;;;;;17.48;9.20;;;14.80;99.90;;;;;;5086546;28;20112;-73
2023/07/22 06:48:18;;;;;;;19.88;9.38;;;14.90;99.90;;;;;;5089191;28;20055;-73
2023/07/22 06:50:50;;;;;;;20.45;9.43;;;15.00;99.90;;;;;;5093153;28;20047;-73
2023/07/22 06:53:16;;;;;;;16.67;9.20;;;15.00;99.90;;;;;;5087053;28;20056;-73
2023/07/22 06:55:52;;;;;;;15.38;9.02;;;15.10;99.90;;;;;;5085184;28;20961;-72
2023/07/22 06:58:27;;;;;;;14.85;8.60;;;15.10;99.90;;;;;;5082191;28;20036;-73
2023/07/22 07:00:55;;;;;;;15.63;8.90;;;15.20;99.90;;;;;;5088645;28;20079;-73
2023/07/22 07:03:21;;;;;;;16.90;8.95;;;15.20;99.90;;;;;;5084964;28;20814;-73
2023/07/22 07:05:55;;;;;;;16.40;9.18;;;15.20;99.90;;;;;;5083886;28;20060;-72
2023/07/22 07:08:21;;;;;;;21.48;9.57;;;15.30;99.90;;;;;;5080489;28;20040;-72
2023/07/22 07:10:47;;;;;;;16.35;9.43;;;15.40;99.90;;;;;;5076856;28;20123;-72
2023/07/22 07:13:13;;;;;;;16.55;9.02;;;15.40;99.90;;;;;;5077037;28;20241;-72
2023/07/22 07:15:39;;;;;;;16.90;9.10;;;15.40;99.90;;;;;;5079516;28;20032;-73
2023/07/22 07:18:05;;;;;;;18.75;9.85;;;15.40;99.90;;;;;;5081859;28;20119;-74
2023/07/22 07:20:31;;;;;;;21.40;10.00;;;15.40;99.90;;;;;;5076918;28;20044;-73
2023/07/22 07:22:56;;;;;;;18.85;10.80;;;15.50;99.90;;;;;;5077969;28;20432;-73
2023/07/22 07:25:22;;;;;;;18.45;10.00;;;15.50;99.90;;;;;;5077555;28;20040;-73
2023/07/22 07:27:48;;;;;;;15.40;9.05;;;15.50;99.90;;;;;;5075697;28;20035;-73
2023/07/22 07:30:14;;;;;;;18.45;10.18;;;15.50;99.90;;;;;;5071485;28;20238;-72
2023/07/22 07:32:40;;;;;;;16.25;8.90;;;15.60;99.90;;;;;;5076384;28;20044;-72
2023/07/22 07:35:06;;;;;;;16.73;9.75;;;15.60;99.90;;;;;;5080441;28;20554;-73
2023/07/22 07:37:32;;;;;;;16.05;9.30;;;15.60;99.90;;;;;;5069809;28;20076;-74
2023/07/22 07:39:59;;;;;;;16.08;10.20;;;15.70;99.90;;;;;;5073938;28;20032;-73
2023/07/22 07:42:28;;;;;;;16.90;10.20;;;15.70;99.90;;;;;;5078292;28;20052;-74
2023/07/22 07:44:54;;;;;;;17.17;10.10;;;15.80;99.90;;;;;;5078551;28;20040;-73
2023/07/22 07:47:20;;;;;;;18.05;9.65;;;15.90;99.90;;;;;;5070036;28;20040;-73
2023/07/22 07:49:46;;;;;;;19.73;10.30;;;16.00;99.90;;;;;;5076189;28;20668;-74
2023/07/22 07:52:12;;;;;;;18.42;9.60;;;16.00;99.90;;;;;;5074280;28;20580;-74
2023/07/22 07:54:37;;;;;;;18.00;9.98;;;16.10;99.90;;;;;;5074446;28;20046;-74
2023/07/22 07:57:03;;;;;;;16.17;9.60;;;16.20;99.90;;;;;;5075074;28;20040;-74
2023/07/22 07:59:29;;;;;;;16.98;9.65;;;16.20;99.90;;;;;;5080986;28;20046;-74
2023/07/22 08:01:55;;;;;;;14.35;9.13;;;16.30;99.90;;;;;;5076562;28;20048;-74
2023/07/22 08:04:21;;;;;;;13.45;8.38;;;16.40;99.90;;;;;;5083450;28;20036;-74
2023/07/22 08:06:46;;;;;;;14.77;9.30;;;16.50;99.90;;;;;;5080602;28;20452;-73
2023/07/22 08:09:18;;;;;;;13.23;7.95;;;16.60;99.90;;;;;;5077474;28;20040;-73
2023/07/22 08:11:44;;;;;;;17.02;9.23;;;16.60;99.90;;;;;;5086184;28;20047;-74
2023/07/22 08:14:10;;;;;;;15.00;8.90;;;16.60;99.90;;;;;;5087222;28;20044;-73
2023/07/22 08:16:35;;;;;;;14.57;8.48;;;16.60;99.90;;;;;;5089113;28;20123;-73
2023/07/22 08:19:01;;;;;;;15.48;8.55;;;16.70;99.90;;;;;;5088188;28;20082;-73
2023/07/22 08:21:27;;;;;;;13.70;7.55;;;16.70;99.90;;;;;;5081434;28;20051;-73
2023/07/22 08:23:53;;;;;;;14.02;7.63;;;16.70;99.90;;;;;;5085305;28;20118;-73
2023/07/22 08:26:20;;;;;;;16.08;8.05;;;16.70;99.90;;;;;;5087756;28;20036;-73
2023/07/22 08:28:47;;;;;;;14.98;8.25;;;16.80;99.90;;;;;;5075827;28;20089;-73
2023/07/22 08:31:13;;;;;;;13.57;8.05;;;16.80;99.90;;;;;;5076367;28;20405;-74
2023/07/22 08:33:38;;;;;;;14.65;8.80;;;16.90;99.90;;;;;;5079426;28;20040;-73
2023/07/22 08:36:05;;;;;;;13.40;8.05;;;16.90;99.90;;;;;;5082535;28;20303;-73
2023/07/22 08:38:31;;;;;;;14.18;7.95;;;17.10;99.90;;;;;;5077005;28;20059;-73
2023/07/22 08:40:57;;;;;;;15.68;8.02;;;17.10;99.90;;;;;;5077655;28;20051;-72
2023/07/22 08:43:23;;;;;;;11.52;7.60;;;17.20;99.90;;;;;;5079101;28;20067;-73
2023/07/22 08:45:50;;;;;;;13.60;7.72;;;17.30;99.90;;;;;;5086749;28;20043;-73
2023/07/22 08:48:20;;;;;;;15.25;6.80;;;17.40;99.90;;;;;;5088009;28;20396;-72
2023/07/22 08:50:58;;;;;;;14.85;8.82;;;17.40;99.90;;;;;;5079967;28;20950;-73
2023/07/22 08:53:25;;;;;;;13.52;7.57;;;17.50;99.90;;;;;;5084933;28;20040;-73
2023/07/22 08:55:52;;;;;;;13.18;7.68;;;17.60;99.90;;;;;;5088187;28;20404;-73
2023/07/22 08:58:18;;;;;;;11.38;6.82;;;17.70;99.90;;;;;;5076082;28;20516;-73
2023/07/22 09:00:43;;;;;;;12.52;7.53;;;17.80;99.90;;;;;;5083455;28;20869;-73
2023/07/22 09:03:11;;;;;;;15.13;7.28;;;18.00;99.90;;;;;;5087188;28;20048;-73
2023/07/22 09:05:38;;;;;;;11.82;7.28;;;18.00;99.90;;;;;;5079647;28;20509;-74
2023/07/22 09:08:07;;;;;;;13.00;7.47;;;18.00;99.90;;;;;;5085868;28;20044;-74
2023/07/22 09:10:33;;;;;;;12.23;7.03;;;18.00;99.90;;;;;;5088696;28;20607;-73
2023/07/22 09:13:00;;;;;;;16.05;8.48;;;18.00;99.90;;;;;;5077931;28;20044;-73
2023/07/22 09:15:27;;;;;;;15.43;8.57;;;18.00;99.90;;;;;;5081254;28;20051;-73
2023/07/22 09:17:53;;;;;;;15.88;8.32;;;17.90;99.90;;;;;;5082760;28;20032;-73
2023/07/22 09:20:19;;;;;;;16.08;9.88;;;17.80;99.90;;;;;;5082394;28;20039;-73
2023/07/22 09:22:50;;;;;;;16.05;9.38;;;17.80;99.90;;;;;;5085223;28;20420;-72
2023/07/22 09:25:18;;;;;;;15.95;8.77;;;17.70;99.90;;;;;;5081999;28;20040;-73
2023/07/22 09:27:45;;;;;;;17.27;9.85;;;17.50;99.90;;;;;;5086237;28;20713;-73
2023/07/22 09:30:38;;;;;;;13.70;8.63;;;17.40;99.90;;;;;;5086165;28;20059;-72
2023/07/22 09:33:06;;;;;;;13.52;8.43;;;17.40;99.90;;;;;;5081005;28;20516;-73
2023/07/22 09:35:45;;;;;;;19.40;9.07;;;17.30;99.90;;;;;;5078619;28;20045;-73
2023/07/22 09:38:11;;;;;;;15.38;9.43;;;17.20;99.90;;;;;;5079763;28;20035;-73
2023/07/22 09:40:40;;;;;;;16.13;8.70;;;17.20;99.90;;;;;;5075160;28;20040;-72
2023/07/22 09:43:06;;;;;;;14.10;8.07;;;17.20;99.90;;;;;;5075307;28;20139;-71
2023/07/22 09:45:32;;;;;;;12.73;7.88;;;17.10;99.90;;;;;;5083080;28;20070;-72
2023/07/22 09:47:59;;;;;;;13.40;7.45;;;17.10;99.90;;;;;;5077335;28;20391;-72
2023/07/22 09:50:26;;;;;;;14.68;8.43;;;17.10;99.90;;;;;;5067698;28;20054;-72
2023/07/22 09:52:54;;;;;;;13.02;7.93;;;17.00;99.90;;;;;;5069568;28;20040;-72
2023/07/22 09:55:23;;;;;;;14.77;9.10;;;17.00;99.90;;;;;;5068686;28;20032;-72
2023/07/22 09:57:57;;;;;;;16.38;9.43;;;17.00;99.90;;;;;;5067715;28;20048;-73
2023/07/22 10:00:47;;;;;;;13.73;8.05;;;17.10;99.90;;;;;;5066932;28;20032;-72
2023/07/22 10:03:16;;;;;;;13.52;8.63;;;17.10;99.90;;;;;;5067813;28;20036;-72
2023/07/22 10:05:43;;;;;;;14.98;8.77;;;17.10;99.90;;;;;;5067781;28;20040;-73
2023/07/22 10:08:12;;;;;;;14.95;8.75;;;17.10;99.90;;;;;;5066154;28;20492;-72
2023/07/22 10:10:38;;;;;;;14.65;8.23;;;17.10;99.90;;;;;;5066259;28;20037;-71
2023/07/22 10:13:05;;;;;;;12.55;8.13;;;17.00;99.90;;;;;;5068228;28;20040;-72
2023/07/22 10:15:35;;;;;;;12.95;7.65;;;17.00;99.90;;;;;;5072703;28;20415;-73
2023/07/22 10:18:07;;;;;;;14.80;8.30;;;17.00;99.90;;;;;;5074733;28;20055;-72
2023/07/22 10:20:36;;;;;;;13.05;8.10;;;17.00;99.90;;;;;;5075140;28;20464;-73
2023/07/22 10:23:03;;;;;;;13.57;7.50;;;17.00;99.90;;;;;;5068500;28;20044;-72
2023/07/22 10:25:30;;;;;;;13.23;7.15;;;17.00;99.90;;;;;;5072494;28;20498;-72
2023/07/22 10:27:56;;;;;;;10.98;6.75;;;17.00;99.90;;;;;;5067331;28;20055;-73
2023/07/22 10:30:22;;;;;;;11.52;6.43;;;17.10;99.90;;;;;;5070071;28;20048;-73
2023/07/22 10:32:53;;;;;;;11.60;6.20;;;17.00;99.90;;;;;;5064594;28;20087;-74
2023/07/22 10:35:31;;;;;;;13.82;6.45;;;17.00;99.90;;;;;;5063780;28;20044;-72
2023/07/22 10:38:11;;;;;;;13.93;6.25;;;17.00;99.90;;;;;;5062638;28;20063;-72
2023/07/22 10:40:46;;;;;;;10.35;5.68;;;17.00;99.90;;;;;;5071977;28;20043;-72
2023/07/22 10:43:12;;;;;;;9.95;5.30;;;17.00;99.90;;;;;;5073864;28;20036;-71
2023/07/22 10:45:42;;;;;;;9.45;5.10;;;17.00;99.90;;;;;;5071222;28;20036;-73
2023/07/22 10:48:09;;;;;;;11.95;4.97;;;17.00;99.90;;;;;;5066485;28;20040;-73
2023/07/22 10:50:44;;;;;;;7.65;4.43;;;17.00;99.90;;;;;;5067986;28;20059;-73
2023/07/22 10:53:11;;;;;;;7.97;4.50;;;17.00;99.90;;;;;;5066615;28;20044;-73
2023/07/22 10:56:01;;;;;;;8.80;5.20;;;16.90;99.90;;;;;;5065730;28;20098;-73
2023/07/22 10:58:29;;;;;;;10.33;5.10;;;16.90;99.90;;;;;;5072174;28;20047;-73
2023/07/22 11:00:55;;;;;;;8.07;4.90;;;16.90;99.90;;;;;;5075841;28;21075;-73
2023/07/22 11:03:21;;;;;;;8.50;5.05;;;16.90;99.90;;;;;;5075836;28;20119;-73
2023/07/22 11:05:50;;;;;;;11.00;5.70;;;16.80;99.90;;;;;;5073311;28;20684;-73
2023/07/22 11:08:16;;;;;;;9.95;6.03;;;16.80;99.90;;;;;;5076556;28;20782;-73
2023/07/22 11:10:54;;;;;;;10.35;5.28;;;16.80;99.90;;;;;;5060346;28;20155;-73
2023/07/22 11:13:28;;;;;;;9.88;5.93;;;16.80;99.90;;;;;;5062306;28;20067;-72
2023/07/22 11:15:58;;;;;;;8.80;5.35;;;16.90;99.90;;;;;;5064647;28;20043;-73
2023/07/22 11:18:39;;;;;;;10.97;5.77;;;16.90;99.90;;;;;;5063867;28;20047;-73
2023/07/22 11:21:11;;;;;;;7.55;5.07;;;16.90;99.90;;;;;;5065249;28;20040;-72
2023/07/22 11:23:37;;;;;;;8.73;5.25;;;16.80;99.90;;;;;;5062777;28;20709;-73
2023/07/22 11:26:03;;;;;;;8.85;5.30;;;16.90;99.90;;;;;;5061433;28;20051;-73
2023/07/22 11:28:30;;;;;;;8.60;5.38;;;16.80;99.90;;;;;;5066494;28;20632;-72
2023/07/22 11:30:58;;;;;;;10.30;5.50;;;16.80;99.90;;;;;;5066816;28;20297;-73
2023/07/22 11:33:24;;;;;;;11.00;5.60;;;16.80;99.90;;;;;;5067315;28;20032;-73
2023/07/22 11:35:50;;;;;;;8.38;5.28;;;16.80;99.90;;;;;;5062646;28;20055;-73
2023/07/22 11:38:16;;;;;;;9.75;5.75;;;16.80;99.90;;;;;;5064923;28;20044;-73
2023/07/22 11:40:42;;;;;;;10.00;5.53;;;16.80;99.90;;;;;;5078279;28;20418;-73
2023/07/22 11:43:08;;;;;;;10.57;5.50;;;16.80;99.90;;;;;;5063541;28;20856;-74
2023/07/22 11:45:34;;;;;;;10.35;6.10;;;16.80;99.90;;;;;;5064598;28;20042;-73
2023/07/22 11:47:59;;;;;;;9.55;5.43;;;16.70;99.90;;;;;;5066817;28;20043;-73
2023/07/22 11:50:34;;;;;;;12.25;5.82;;;16.70;99.90;;;;;;5064617;28;20036;-71
2023/07/22 11:53:00;;;;;;;10.93;6.22;;;16.70;99.90;;;;;;5066966;28;20071;-73
2023/07/22 11:55:27;;;;;;;11.35;6.90;;;16.70;99.90;;;;;;5069050;28;20147;-74
2023/07/22 11:57:54;;;;;;;9.85;6.70;;;16.70;99.90;;;;;;5067747;28;20530;-73
2023/07/22 12:00:20;;;;;;;10.85;6.88;;;16.70;99.90;;;;;;5078715;28;20040;-73
2023/07/22 12:02:46;;;;;;;9.35;6.68;;;16.70;99.90;;;;;;5076593;28;20131;-72
2023/07/22 12:05:20;;;;;;;11.27;7.15;;;16.70;99.90;;;;;;5077506;28;20596;-72
2023/07/22 12:07:49;;;;;;;11.05;7.40;;;16.70;99.90;;;;;;5065719;28;20051;-73
2023/07/22 12:10:16;;;;;;;11.30;7.07;;;16.70;99.90;;;;;;5061545;28;20112;-74
2023/07/22 12:12:46;;;;;;;12.32;8.30;;;16.70;99.90;;;;;;5070490;28;20416;-73
2023/07/22 12:15:19;;;;;;;10.52;7.68;;;16.70;99.90;;;;;;5068868;28;20051;-72
2023/07/22 12:17:59;;;;;;;11.68;7.60;;;16.70;99.90;;;;;;5065394;28;20127;-73
2023/07/22 12:20:28;;;;;;;12.95;7.97;;;16.80;99.90;;;;;;5069097;28;20662;-73
2023/07/22 12:22:54;;;;;;;13.50;9.10;;;16.80;99.90;;;;;;5072163;28;20494;-72
2023/07/22 12:25:20;;;;;;;14.48;8.63;;;16.80;99.90;;;;;;5069197;28;20660;-72
2023/07/22 12:27:46;;;;;;;12.73;9.02;;;16.70;99.90;;;;;;5069844;28;20527;-73
2023/07/22 12:30:12;;;;;;;14.80;9.93;;;16.80;99.90;;;;;;5068608;28;20044;-72
2023/07/22 12:32:38;;;;;;;12.50;9.23;;;16.70;99.90;;;;;;5072321;28;20043;-72
2023/07/22 12:35:05;;;;;;;15.68;10.70;;;16.70;99.90;;;;;;5070002;28;20123;-72
2023/07/22 12:37:31;;;;;;;13.45;9.30;;;16.70;99.90;;;;;;5070636;28;20040;-73
2023/07/22 12:39:57;;;;;;;13.60;8.90;;;16.70;99.90;;;;;;5069213;28;20051;-73